sensor_id;sensor_type;location;lat;lon;timestamp;P1;durP1;ratioP1;P2;durP2;ratioP2
39074;SDS011;24826;52.070;20.970;2022-12-07T00:02:50;35.92;;;22.67;;
39074;SDS011;24826;52.070;20.970;2022-12-07T00:05:34;35.28;;;20.83;;
39074;SDS011;24826;52.070;20.970;2022-12-07T00:08:19;43.53;;;22.17;;
39074;SDS011;24826;52.070;20.970;2022-12-07T00:11:04;36.03;;;21.17;;
39074;SDS011;24826;52.070;20.970;2022-12-07T00:13:51;30.95;;;20.05;;
39074;SDS011;24826;52.070;20.970;2022-12-07T00:16:40;34.53;;;20.38;;
39074;SDS011;24826;52.070;20.970;2022-12-07T00:19:25;35.05;;;21.13;;
39074;SDS011;24826;52.070;20.970;2022-12-07T00:22:09;32.25;;;19.40;;
39074;SDS011;24826;52.070;20.970;2022-12-07T00:24:53;30.77;;;18.73;;
39074;SDS011;24826;52.070;20.970;2022-12-07T00:27:38;31.23;;;19.58;;
39074;SDS011;24826;52.070;20.970;2022-12-07T00:30:22;33.38;;;18.70;;
39074;SDS011;24826;52.070;20.970;2022-12-07T00:33:07;29.73;;;18.27;;
39074;SDS011;24826;52.070;20.970;2022-12-07T00:35:56;30.17;;;18.05;;
39074;SDS011;24826;52.070;20.970;2022-12-07T00:38:41;33.05;;;19.45;;
39074;SDS011;24826;52.070;20.970;2022-12-07T00:41:28;31.08;;;18.88;;
39074;SDS011;24826;52.070;20.970;2022-12-07T00:44:13;28.83;;;17.45;;
39074;SDS011;24826;52.070;20.970;2022-12-07T00:46:58;28.48;;;17.15;;
39074;SDS011;24826;52.070;20.970;2022-12-07T00:49:42;27.40;;;15.65;;
39074;SDS011;24826;52.070;20.970;2022-12-07T00:52:26;26.00;;;15.88;;
39074;SDS011;24826;52.070;20.970;2022-12-07T00:55:12;29.30;;;15.82;;
39074;SDS011;24826;52.070;20.970;2022-12-07T00:57:56;24.83;;;15.18;;
39074;SDS011;24826;52.070;20.970;2022-12-07T01:00:41;25.52;;;15.15;;
39074;SDS011;24826;52.070;20.970;2022-12-07T01:03:27;25.30;;;13.88;;
39074;SDS011;24826;52.070;20.970;2022-12-07T01:06:16;21.95;;;13.50;;
39074;SDS011;24826;52.070;20.970;2022-12-07T01:09:02;21.83;;;14.05;;
39074;SDS011;24826;52.070;20.970;2022-12-07T01:11:48;22.63;;;13.85;;
39074;SDS011;24826;52.070;20.970;2022-12-07T01:14:32;23.15;;;12.35;;
39074;SDS011;24826;52.070;20.970;2022-12-07T01:17:16;22.60;;;13.35;;
39074;SDS011;24826;52.070;20.970;2022-12-07T01:20:01;22.90;;;12.95;;
39074;SDS011;24826;52.070;20.970;2022-12-07T01:22:46;21.58;;;12.63;;
39074;SDS011;24826;52.070;20.970;2022-12-07T01:25:30;21.60;;;13.23;;
39074;SDS011;24826;52.070;20.970;2022-12-07T01:28:15;23.02;;;13.40;;
39074;SDS011;24826;52.070;20.970;2022-12-07T01:31:03;21.13;;;12.90;;
39074;SDS011;24826;52.070;20.970;2022-12-07T01:33:51;20.33;;;11.65;;
39074;SDS011;24826;52.070;20.970;2022-12-07T01:36:38;19.73;;;12.45;;
39074;SDS011;24826;52.070;20.970;2022-12-07T01:39:23;20.77;;;11.52;;
39074;SDS011;24826;52.070;20.970;2022-12-07T01:42:09;18.35;;;11.52;;
39074;SDS011;24826;52.070;20.970;2022-12-07T01:48:02;19.42;;;10.88;;
39074;SDS011;24826;52.070;20.970;2022-12-07T01:50:49;18.60;;;11.25;;
39074;SDS011;24826;52.070;20.970;2022-12-07T01:53:38;19.33;;;10.85;;
39074;SDS011;24826;52.070;20.970;2022-12-07T01:56:26;18.38;;;10.10;;
39074;SDS011;24826;52.070;20.970;2022-12-07T01:59:12;16.52;;;11.15;;
39074;SDS011;24826;52.070;20.970;2022-12-07T02:01:57;18.33;;;10.75;;
39074;SDS011;24826;52.070;20.970;2022-12-07T02:04:42;21.02;;;10.90;;
39074;SDS011;24826;52.070;20.970;2022-12-07T02:07:27;18.17;;;11.05;;
39074;SDS011;24826;52.070;20.970;2022-12-07T02:10:29;18.15;;;10.52;;
39074;SDS011;24826;52.070;20.970;2022-12-07T02:13:16;20.45;;;11.30;;
39074;SDS011;24826;52.070;20.970;2022-12-07T02:19:37;17.63;;;10.45;;
39074;SDS011;24826;52.070;20.970;2022-12-07T02:29:10;13.05;;;8.25;;
39074;SDS011;24826;52.070;20.970;2022-12-07T02:32:19;14.23;;;7.18;;
39074;SDS011;24826;52.070;20.970;2022-12-07T02:35:15;13.05;;;7.60;;
39074;SDS011;24826;52.070;20.970;2022-12-07T02:38:06;10.55;;;6.93;;
39074;SDS011;24826;52.070;20.970;2022-12-07T02:44:06;11.05;;;7.25;;
39074;SDS011;24826;52.070;20.970;2022-12-07T02:47:03;12.15;;;7.68;;
39074;SDS011;24826;52.070;20.970;2022-12-07T02:49:51;11.85;;;7.03;;
39074;SDS011;24826;52.070;20.970;2022-12-07T02:52:36;11.30;;;7.47;;
39074;SDS011;24826;52.070;20.970;2022-12-07T02:55:23;11.25;;;6.47;;
39074;SDS011;24826;52.070;20.970;2022-12-07T03:01:40;11.10;;;6.80;;
39074;SDS011;24826;52.070;20.970;2022-12-07T03:04:38;9.85;;;5.93;;
39074;SDS011;24826;52.070;20.970;2022-12-07T03:13:47;8.35;;;5.40;;
39074;SDS011;24826;52.070;20.970;2022-12-07T03:17:04;10.52;;;5.45;;
39074;SDS011;24826;52.070;20.970;2022-12-07T03:19:56;8.48;;;4.80;;
39074;SDS011;24826;52.070;20.970;2022-12-07T03:22:43;9.82;;;5.32;;
39074;SDS011;24826;52.070;20.970;2022-12-07T03:25:31;8.95;;;5.30;;
39074;SDS011;24826;52.070;20.970;2022-12-07T03:28:20;7.28;;;4.43;;
39074;SDS011;24826;52.070;20.970;2022-12-07T03:31:16;8.43;;;4.88;;
39074;SDS011;24826;52.070;20.970;2022-12-07T03:37:15;8.27;;;5.00;;
39074;SDS011;24826;52.070;20.970;2022-12-07T03:40:22;8.45;;;5.28;;
39074;SDS011;24826;52.070;20.970;2022-12-07T03:43:14;8.60;;;4.57;;
39074;SDS011;24826;52.070;20.970;2022-12-07T03:46:00;8.68;;;4.93;;
39074;SDS011;24826;52.070;20.970;2022-12-07T03:55:18;9.98;;;5.78;;
39074;SDS011;24826;52.070;20.970;2022-12-07T03:58:14;11.05;;;6.80;;
39074;SDS011;24826;52.070;20.970;2022-12-07T04:01:02;10.88;;;6.90;;
39074;SDS011;24826;52.070;20.970;2022-12-07T04:03:47;11.45;;;7.10;;
39074;SDS011;24826;52.070;20.970;2022-12-07T04:06:31;11.15;;;6.93;;
39074;SDS011;24826;52.070;20.970;2022-12-07T04:09:16;9.45;;;6.78;;
39074;SDS011;24826;52.070;20.970;2022-12-07T04:12:01;10.73;;;7.07;;
39074;SDS011;24826;52.070;20.970;2022-12-07T04:14:45;11.35;;;6.97;;
39074;SDS011;24826;52.070;20.970;2022-12-07T04:17:30;10.63;;;6.30;;
39074;SDS011;24826;52.070;20.970;2022-12-07T04:20:14;11.55;;;7.18;;
39074;SDS011;24826;52.070;20.970;2022-12-07T04:22:59;8.93;;;6.68;;
39074;SDS011;24826;52.070;20.970;2022-12-07T04:25:43;12.40;;;6.20;;
39074;SDS011;24826;52.070;20.970;2022-12-07T04:28:28;9.63;;;6.13;;
39074;SDS011;24826;52.070;20.970;2022-12-07T04:31:12;11.55;;;6.00;;
39074;SDS011;24826;52.070;20.970;2022-12-07T04:33:57;8.90;;;5.65;;
39074;SDS011;24826;52.070;20.970;2022-12-07T04:36:41;9.50;;;5.85;;
39074;SDS011;24826;52.070;20.970;2022-12-07T04:39:30;9.90;;;5.38;;
39074;SDS011;24826;52.070;20.970;2022-12-07T04:42:15;9.77;;;5.72;;
39074;SDS011;24826;52.070;20.970;2022-12-07T04:44:59;11.27;;;6.45;;
39074;SDS011;24826;52.070;20.970;2022-12-07T04:47:43;9.10;;;5.85;;
39074;SDS011;24826;52.070;20.970;2022-12-07T04:50:28;9.45;;;5.63;;
39074;SDS011;24826;52.070;20.970;2022-12-07T04:53:12;10.68;;;6.03;;
39074;SDS011;24826;52.070;20.970;2022-12-07T04:55:56;9.57;;;6.05;;
39074;SDS011;24826;52.070;20.970;2022-12-07T04:58:41;8.60;;;5.50;;
39074;SDS011;24826;52.070;20.970;2022-12-07T05:01:27;9.45;;;5.78;;
39074;SDS011;24826;52.070;20.970;2022-12-07T05:04:11;9.10;;;5.90;;
39074;SDS011;24826;52.070;20.970;2022-12-07T05:06:56;8.77;;;5.68;;
39074;SDS011;24826;52.070;20.970;2022-12-07T05:09:40;9.93;;;5.70;;
39074;SDS011;24826;52.070;20.970;2022-12-07T05:12:25;10.45;;;6.28;;
39074;SDS011;24826;52.070;20.970;2022-12-07T05:15:09;8.45;;;5.82;;
39074;SDS011;24826;52.070;20.970;2022-12-07T05:17:54;9.02;;;6.05;;
39074;SDS011;24826;52.070;20.970;2022-12-07T05:20:39;10.15;;;6.28;;
39074;SDS011;24826;52.070;20.970;2022-12-07T05:23:24;9.75;;;6.10;;
39074;SDS011;24826;52.070;20.970;2022-12-07T05:26:08;10.25;;;6.22;;
39074;SDS011;24826;52.070;20.970;2022-12-07T05:28:53;8.10;;;5.57;;
39074;SDS011;24826;52.070;20.970;2022-12-07T05:31:38;11.00;;;6.10;;
39074;SDS011;24826;52.070;20.970;2022-12-07T05:34:23;10.38;;;6.90;;
39074;SDS011;24826;52.070;20.970;2022-12-07T05:37:07;9.82;;;6.30;;
39074;SDS011;24826;52.070;20.970;2022-12-07T05:39:52;10.02;;;5.90;;
39074;SDS011;24826;52.070;20.970;2022-12-07T05:42:36;10.63;;;6.38;;
39074;SDS011;24826;52.070;20.970;2022-12-07T05:45:21;9.45;;;6.07;;
39074;SDS011;24826;52.070;20.970;2022-12-07T05:48:05;9.80;;;6.20;;
39074;SDS011;24826;52.070;20.970;2022-12-07T05:50:50;11.95;;;6.72;;
39074;SDS011;24826;52.070;20.970;2022-12-07T05:53:35;9.65;;;6.47;;
39074;SDS011;24826;52.070;20.970;2022-12-07T05:56:20;9.93;;;6.70;;
39074;SDS011;24826;52.070;20.970;2022-12-07T05:59:04;10.02;;;6.75;;
39074;SDS011;24826;52.070;20.970;2022-12-07T06:02:07;12.00;;;6.40;;
39074;SDS011;24826;52.070;20.970;2022-12-07T06:04:58;10.82;;;6.97;;
39074;SDS011;24826;52.070;20.970;2022-12-07T06:07:42;11.07;;;6.75;;
39074;SDS011;24826;52.070;20.970;2022-12-07T06:10:26;10.50;;;6.68;;
39074;SDS011;24826;52.070;20.970;2022-12-07T06:13:11;11.52;;;6.97;;
39074;SDS011;24826;52.070;20.970;2022-12-07T06:15:56;14.20;;;7.20;;
39074;SDS011;24826;52.070;20.970;2022-12-07T06:18:40;13.02;;;7.63;;
39074;SDS011;24826;52.070;20.970;2022-12-07T06:21:25;10.70;;;7.05;;
39074;SDS011;24826;52.070;20.970;2022-12-07T06:24:11;10.95;;;6.82;;
39074;SDS011;24826;52.070;20.970;2022-12-07T06:26:56;10.65;;;6.68;;
39074;SDS011;24826;52.070;20.970;2022-12-07T06:29:41;10.13;;;6.25;;
39074;SDS011;24826;52.070;20.970;2022-12-07T06:32:25;10.15;;;6.47;;
39074;SDS011;24826;52.070;20.970;2022-12-07T06:35:10;15.55;;;7.65;;
39074;SDS011;24826;52.070;20.970;2022-12-07T06:37:54;13.80;;;7.47;;
39074;SDS011;24826;52.070;20.970;2022-12-07T06:40:38;10.07;;;6.55;;
39074;SDS011;24826;52.070;20.970;2022-12-07T06:43:23;11.20;;;6.22;;
39074;SDS011;24826;52.070;20.970;2022-12-07T06:46:07;10.75;;;6.60;;
39074;SDS011;24826;52.070;20.970;2022-12-07T06:48:52;12.75;;;7.00;;
39074;SDS011;24826;52.070;20.970;2022-12-07T06:51:36;10.82;;;6.70;;
39074;SDS011;24826;52.070;20.970;2022-12-07T06:54:24;11.05;;;6.32;;
39074;SDS011;24826;52.070;20.970;2022-12-07T06:57:09;9.52;;;5.90;;
39074;SDS011;24826;52.070;20.970;2022-12-07T06:59:53;9.95;;;6.10;;
39074;SDS011;24826;52.070;20.970;2022-12-07T07:02:38;11.60;;;6.45;;
39074;SDS011;24826;52.070;20.970;2022-12-07T07:05:22;10.40;;;6.60;;
39074;SDS011;24826;52.070;20.970;2022-12-07T07:08:07;9.45;;;6.38;;
39074;SDS011;24826;52.070;20.970;2022-12-07T07:10:51;10.27;;;6.45;;
39074;SDS011;24826;52.070;20.970;2022-12-07T07:13:36;11.25;;;6.55;;
39074;SDS011;24826;52.070;20.970;2022-12-07T07:16:20;10.88;;;6.55;;
39074;SDS011;24826;52.070;20.970;2022-12-07T07:19:05;9.65;;;6.70;;
39074;SDS011;24826;52.070;20.970;2022-12-07T07:21:50;10.98;;;6.68;;
39074;SDS011;24826;52.070;20.970;2022-12-07T07:24:34;11.18;;;6.63;;
39074;SDS011;24826;52.070;20.970;2022-12-07T07:27:18;10.48;;;6.07;;
39074;SDS011;24826;52.070;20.970;2022-12-07T07:30:04;10.18;;;6.50;;
39074;SDS011;24826;52.070;20.970;2022-12-07T07:32:48;9.65;;;5.88;;
39074;SDS011;24826;52.070;20.970;2022-12-07T07:35:33;8.93;;;6.10;;
39074;SDS011;24826;52.070;20.970;2022-12-07T07:38:18;9.38;;;6.70;;
39074;SDS011;24826;52.070;20.970;2022-12-07T07:41:03;11.55;;;7.40;;
39074;SDS011;24826;52.070;20.970;2022-12-07T07:43:47;10.02;;;6.30;;
39074;SDS011;24826;52.070;20.970;2022-12-07T07:46:31;10.27;;;6.75;;
39074;SDS011;24826;52.070;20.970;2022-12-07T07:49:16;12.80;;;6.72;;
39074;SDS011;24826;52.070;20.970;2022-12-07T07:52:01;11.30;;;6.90;;
39074;SDS011;24826;52.070;20.970;2022-12-07T07:54:45;10.35;;;6.70;;
39074;SDS011;24826;52.070;20.970;2022-12-07T07:57:30;10.77;;;6.38;;
39074;SDS011;24826;52.070;20.970;2022-12-07T08:00:15;10.60;;;6.13;;
39074;SDS011;24826;52.070;20.970;2022-12-07T08:03:00;9.85;;;6.38;;
39074;SDS011;24826;52.070;20.970;2022-12-07T08:05:44;8.98;;;6.03;;
39074;SDS011;24826;52.070;20.970;2022-12-07T08:08:29;9.98;;;6.40;;
39074;SDS011;24826;52.070;20.970;2022-12-07T08:11:13;8.35;;;5.70;;
39074;SDS011;24826;52.070;20.970;2022-12-07T08:13:58;9.25;;;6.03;;
39074;SDS011;24826;52.070;20.970;2022-12-07T08:16:42;10.60;;;5.57;;
39074;SDS011;24826;52.070;20.970;2022-12-07T08:19:26;9.18;;;5.80;;
39074;SDS011;24826;52.070;20.970;2022-12-07T08:22:10;9.75;;;5.90;;
39074;SDS011;24826;52.070;20.970;2022-12-07T08:24:55;8.52;;;5.20;;
39074;SDS011;24826;52.070;20.970;2022-12-07T08:27:39;9.55;;;5.68;;
39074;SDS011;24826;52.070;20.970;2022-12-07T08:30:24;10.80;;;6.32;;
39074;SDS011;24826;52.070;20.970;2022-12-07T08:33:08;12.27;;;6.30;;
39074;SDS011;24826;52.070;20.970;2022-12-07T08:35:54;10.70;;;7.15;;
39074;SDS011;24826;52.070;20.970;2022-12-07T08:38:43;12.05;;;7.03;;
39074;SDS011;24826;52.070;20.970;2022-12-07T08:41:28;13.27;;;6.85;;
39074;SDS011;24826;52.070;20.970;2022-12-07T08:44:13;12.27;;;6.95;;
39074;SDS011;24826;52.070;20.970;2022-12-07T08:46:58;13.55;;;7.05;;
39074;SDS011;24826;52.070;20.970;2022-12-07T08:49:47;14.15;;;8.23;;
39074;SDS011;24826;52.070;20.970;2022-12-07T08:52:34;13.10;;;7.88;;
39074;SDS011;24826;52.070;20.970;2022-12-07T08:55:20;14.07;;;7.65;;
39074;SDS011;24826;52.070;20.970;2022-12-07T08:58:05;13.93;;;9.32;;
39074;SDS011;24826;52.070;20.970;2022-12-07T09:00:49;12.70;;;7.85;;
39074;SDS011;24826;52.070;20.970;2022-12-07T09:03:33;13.65;;;8.45;;
39074;SDS011;24826;52.070;20.970;2022-12-07T09:06:18;14.32;;;9.15;;
39074;SDS011;24826;52.070;20.970;2022-12-07T09:09:03;13.60;;;8.93;;
39074;SDS011;24826;52.070;20.970;2022-12-07T09:11:48;12.20;;;8.23;;
39074;SDS011;24826;52.070;20.970;2022-12-07T09:14:32;13.38;;;8.60;;
39074;SDS011;24826;52.070;20.970;2022-12-07T09:17:17;16.10;;;9.18;;
39074;SDS011;24826;52.070;20.970;2022-12-07T09:20:02;16.35;;;9.00;;
39074;SDS011;24826;52.070;20.970;2022-12-07T09:22:48;18.58;;;9.52;;
39074;SDS011;24826;52.070;20.970;2022-12-07T09:25:33;15.55;;;8.63;;
39074;SDS011;24826;52.070;20.970;2022-12-07T09:28:18;15.93;;;9.15;;
39074;SDS011;24826;52.070;20.970;2022-12-07T09:31:03;15.68;;;8.95;;
39074;SDS011;24826;52.070;20.970;2022-12-07T09:33:53;16.20;;;9.85;;
39074;SDS011;24826;52.070;20.970;2022-12-07T09:36:41;18.48;;;9.75;;
39074;SDS011;24826;52.070;20.970;2022-12-07T09:39:26;21.05;;;10.63;;
39074;SDS011;24826;52.070;20.970;2022-12-07T09:42:13;20.73;;;10.63;;
39074;SDS011;24826;52.070;20.970;2022-12-07T09:45:53;19.35;;;10.82;;
39074;SDS011;24826;52.070;20.970;2022-12-07T09:48:21;20.75;;;11.30;;
39074;SDS011;24826;52.070;20.970;2022-12-07T09:51:23;18.92;;;10.65;;
39074;SDS011;24826;52.070;20.970;2022-12-07T09:54:09;18.95;;;10.30;;
39074;SDS011;24826;52.070;20.970;2022-12-07T09:56:58;19.30;;;9.70;;
39074;SDS011;24826;52.070;20.970;2022-12-07T09:59:42;18.15;;;10.35;;
39074;SDS011;24826;52.070;20.970;2022-12-07T10:05:22;18.33;;;9.60;;
39074;SDS011;24826;52.070;20.970;2022-12-07T10:08:11;18.27;;;9.85;;
39074;SDS011;24826;52.070;20.970;2022-12-07T10:10:57;17.27;;;10.18;;
39074;SDS011;24826;52.070;20.970;2022-12-07T10:13:42;18.27;;;10.02;;
39074;SDS011;24826;52.070;20.970;2022-12-07T10:16:38;17.50;;;9.90;;
39074;SDS011;24826;52.070;20.970;2022-12-07T10:22:16;17.38;;;10.02;;
39074;SDS011;24826;52.070;20.970;2022-12-07T10:25:07;16.48;;;10.60;;
39074;SDS011;24826;52.070;20.970;2022-12-07T10:27:57;17.42;;;9.55;;
39074;SDS011;24826;52.070;20.970;2022-12-07T10:33:50;17.95;;;10.05;;
39074;SDS011;24826;52.070;20.970;2022-12-07T10:36:39;17.15;;;9.60;;
39074;SDS011;24826;52.070;20.970;2022-12-07T10:39:24;18.30;;;10.43;;
39074;SDS011;24826;52.070;20.970;2022-12-07T10:42:18;17.90;;;9.95;;
39074;SDS011;24826;52.070;20.970;2022-12-07T10:45:15;19.85;;;9.73;;
39074;SDS011;24826;52.070;20.970;2022-12-07T10:51:27;15.35;;;8.88;;
39074;SDS011;24826;52.070;20.970;2022-12-07T10:54:41;16.90;;;9.68;;
39074;SDS011;24826;52.070;20.970;2022-12-07T10:57:53;17.67;;;9.95;;
39074;SDS011;24826;52.070;20.970;2022-12-07T11:00:59;15.60;;;9.38;;
39074;SDS011;24826;52.070;20.970;2022-12-07T11:07:10;13.32;;;9.23;;
39074;SDS011;24826;52.070;20.970;2022-12-07T11:10:13;19.52;;;9.82;;
39074;SDS011;24826;52.070;20.970;2022-12-07T11:13:23;14.90;;;9.60;;
39074;SDS011;24826;52.070;20.970;2022-12-07T11:16:16;15.15;;;9.73;;
39074;SDS011;24826;52.070;20.970;2022-12-07T11:19:13;16.40;;;10.23;;
39074;SDS011;24826;52.070;20.970;2022-12-07T11:28:31;16.23;;;9.30;;
39074;SDS011;24826;52.070;20.970;2022-12-07T11:31:38;17.13;;;10.93;;
39074;SDS011;24826;52.070;20.970;2022-12-07T11:37:25;18.15;;;11.45;;
39074;SDS011;24826;52.070;20.970;2022-12-07T11:43:26;18.27;;;11.25;;
39074;SDS011;24826;52.070;20.970;2022-12-07T11:46:15;17.58;;;10.20;;
39074;SDS011;24826;52.070;20.970;2022-12-07T11:49:12;16.75;;;10.70;;
39074;SDS011;24826;52.070;20.970;2022-12-07T11:52:04;16.20;;;10.55;;
39074;SDS011;24826;52.070;20.970;2022-12-07T11:54:55;16.20;;;10.25;;
39074;SDS011;24826;52.070;20.970;2022-12-07T11:57:44;15.65;;;10.25;;
39074;SDS011;24826;52.070;20.970;2022-12-07T12:00:33;14.75;;;9.27;;
39074;SDS011;24826;52.070;20.970;2022-12-07T12:03:30;14.80;;;9.45;;
39074;SDS011;24826;52.070;20.970;2022-12-07T12:06:22;14.82;;;9.00;;
39074;SDS011;24826;52.070;20.970;2022-12-07T12:21:17;22.33;;;12.75;;
39074;SDS011;24826;52.070;20.970;2022-12-07T12:24:11;16.92;;;10.40;;
39074;SDS011;24826;52.070;20.970;2022-12-07T12:27:01;19.35;;;10.88;;
39074;SDS011;24826;52.070;20.970;2022-12-07T12:29:51;18.85;;;10.65;;
39074;SDS011;24826;52.070;20.970;2022-12-07T12:32:39;16.17;;;10.10;;
39074;SDS011;24826;52.070;20.970;2022-12-07T12:35:35;17.00;;;9.50;;
39074;SDS011;24826;52.070;20.970;2022-12-07T12:53:23;28.88;;;17.08;;
39074;SDS011;24826;52.070;20.970;2022-12-07T12:56:11;61.95;;;29.92;;
39074;SDS011;24826;52.070;20.970;2022-12-07T12:59:30;40.65;;;21.30;;
39074;SDS011;24826;52.070;20.970;2022-12-07T13:02:22;37.30;;;20.23;;
39074;SDS011;24826;52.070;20.970;2022-12-07T13:10:43;49.95;;;27.50;;
39074;SDS011;24826;52.070;20.970;2022-12-07T13:13:30;28.45;;;14.55;;
39074;SDS011;24826;52.070;20.970;2022-12-07T13:19:00;17.60;;;11.00;;
39074;SDS011;24826;52.070;20.970;2022-12-07T13:21:44;14.70;;;9.82;;
39074;SDS011;24826;52.070;20.970;2022-12-07T13:24:29;14.15;;;9.05;;
39074;SDS011;24826;52.070;20.970;2022-12-07T13:27:16;17.50;;;11.30;;
39074;SDS011;24826;52.070;20.970;2022-12-07T13:30:05;13.90;;;9.35;;
39074;SDS011;24826;52.070;20.970;2022-12-07T13:32:58;12.20;;;9.35;;
39074;SDS011;24826;52.070;20.970;2022-12-07T13:35:43;13.55;;;9.07;;
39074;SDS011;24826;52.070;20.970;2022-12-07T13:38:34;12.40;;;8.88;;
39074;SDS011;24826;52.070;20.970;2022-12-07T13:41:21;12.63;;;7.97;;
39074;SDS011;24826;52.070;20.970;2022-12-07T13:44:11;13.43;;;8.48;;
39074;SDS011;24826;52.070;20.970;2022-12-07T13:50:01;13.98;;;10.52;;
39074;SDS011;24826;52.070;20.970;2022-12-07T13:53:07;15.23;;;10.23;;
39074;SDS011;24826;52.070;20.970;2022-12-07T13:55:57;13.93;;;9.98;;
39074;SDS011;24826;52.070;20.970;2022-12-07T13:58:43;15.25;;;10.50;;
39074;SDS011;24826;52.070;20.970;2022-12-07T14:01:30;22.65;;;15.93;;
39074;SDS011;24826;52.070;20.970;2022-12-07T14:04:16;21.52;;;15.32;;
39074;SDS011;24826;52.070;20.970;2022-12-07T14:07:23;17.63;;;12.30;;
39074;SDS011;24826;52.070;20.970;2022-12-07T14:10:22;15.98;;;11.57;;
39074;SDS011;24826;52.070;20.970;2022-12-07T14:19:02;14.23;;;10.40;;
39074;SDS011;24826;52.070;20.970;2022-12-07T14:21:48;15.25;;;10.02;;
39074;SDS011;24826;52.070;20.970;2022-12-07T14:24:51;14.93;;;11.07;;
39074;SDS011;24826;52.070;20.970;2022-12-07T14:27:53;17.00;;;11.45;;
39074;SDS011;24826;52.070;20.970;2022-12-07T14:30:42;16.95;;;10.20;;
39074;SDS011;24826;52.070;20.970;2022-12-07T14:33:26;17.58;;;10.68;;
39074;SDS011;24826;52.070;20.970;2022-12-07T14:36:11;15.10;;;10.25;;
39074;SDS011;24826;52.070;20.970;2022-12-07T14:38:57;14.70;;;10.07;;
39074;SDS011;24826;52.070;20.970;2022-12-07T14:41:43;13.75;;;9.63;;
39074;SDS011;24826;52.070;20.970;2022-12-07T14:44:37;15.85;;;9.95;;
39074;SDS011;24826;52.070;20.970;2022-12-07T14:47:20;14.63;;;10.57;;
39074;SDS011;24826;52.070;20.970;2022-12-07T14:50:05;13.23;;;9.65;;
39074;SDS011;24826;52.070;20.970;2022-12-07T14:52:55;14.80;;;9.50;;
39074;SDS011;24826;52.070;20.970;2022-12-07T14:55:43;14.50;;;9.70;;
39074;SDS011;24826;52.070;20.970;2022-12-07T14:58:28;15.43;;;9.77;;
39074;SDS011;24826;52.070;20.970;2022-12-07T15:01:12;14.00;;;9.88;;
39074;SDS011;24826;52.070;20.970;2022-12-07T15:03:57;14.88;;;9.27;;
39074;SDS011;24826;52.070;20.970;2022-12-07T15:06:41;16.70;;;10.25;;
39074;SDS011;24826;52.070;20.970;2022-12-07T15:09:30;15.27;;;9.93;;
39074;SDS011;24826;52.070;20.970;2022-12-07T15:12:14;17.65;;;10.68;;
39074;SDS011;24826;52.070;20.970;2022-12-07T15:14:59;17.48;;;10.25;;
39074;SDS011;24826;52.070;20.970;2022-12-07T15:17:45;15.75;;;10.35;;
39074;SDS011;24826;52.070;20.970;2022-12-07T15:20:30;14.35;;;10.05;;
39074;SDS011;24826;52.070;20.970;2022-12-07T15:23:14;15.35;;;10.13;;
39074;SDS011;24826;52.070;20.970;2022-12-07T15:25:59;18.10;;;10.82;;
39074;SDS011;24826;52.070;20.970;2022-12-07T15:28:43;17.67;;;10.93;;
39074;SDS011;24826;52.070;20.970;2022-12-07T15:31:27;19.40;;;10.77;;
39074;SDS011;24826;52.070;20.970;2022-12-07T15:34:12;17.38;;;11.40;;
39074;SDS011;24826;52.070;20.970;2022-12-07T15:36:56;17.08;;;10.30;;
39074;SDS011;24826;52.070;20.970;2022-12-07T15:39:41;18.73;;;10.75;;
39074;SDS011;24826;52.070;20.970;2022-12-07T15:42:25;16.65;;;9.93;;
39074;SDS011;24826;52.070;20.970;2022-12-07T15:45:10;16.88;;;10.35;;
39074;SDS011;24826;52.070;20.970;2022-12-07T15:47:55;16.15;;;9.65;;
39074;SDS011;24826;52.070;20.970;2022-12-07T15:50:39;17.02;;;9.98;;
39074;SDS011;24826;52.070;20.970;2022-12-07T15:53:24;16.48;;;9.80;;
39074;SDS011;24826;52.070;20.970;2022-12-07T15:56:08;16.67;;;10.95;;
39074;SDS011;24826;52.070;20.970;2022-12-07T15:58:53;16.75;;;11.43;;
39074;SDS011;24826;52.070;20.970;2022-12-07T16:01:37;18.38;;;11.30;;
39074;SDS011;24826;52.070;20.970;2022-12-07T16:04:21;20.58;;;12.35;;
39074;SDS011;24826;52.070;20.970;2022-12-07T16:07:06;21.20;;;12.40;;
39074;SDS011;24826;52.070;20.970;2022-12-07T16:09:50;23.05;;;14.55;;
39074;SDS011;24826;52.070;20.970;2022-12-07T16:12:35;26.15;;;16.27;;
39074;SDS011;24826;52.070;20.970;2022-12-07T16:15:19;25.10;;;17.23;;
39074;SDS011;24826;52.070;20.970;2022-12-07T16:18:05;23.75;;;15.43;;
39074;SDS011;24826;52.070;20.970;2022-12-07T16:20:50;23.85;;;17.00;;
39074;SDS011;24826;52.070;20.970;2022-12-07T16:23:34;22.33;;;15.43;;
39074;SDS011;24826;52.070;20.970;2022-12-07T16:26:20;20.30;;;14.23;;
39074;SDS011;24826;52.070;20.970;2022-12-07T16:29:05;23.45;;;14.02;;
39074;SDS011;24826;52.070;20.970;2022-12-07T16:31:50;22.38;;;16.70;;
39074;SDS011;24826;52.070;20.970;2022-12-07T16:34:36;22.85;;;15.57;;
39074;SDS011;24826;52.070;20.970;2022-12-07T16:37:20;21.35;;;13.38;;
39074;SDS011;24826;52.070;20.970;2022-12-07T16:40:04;22.38;;;13.73;;
39074;SDS011;24826;52.070;20.970;2022-12-07T16:42:49;20.30;;;13.45;;
39074;SDS011;24826;52.070;20.970;2022-12-07T16:45:33;16.95;;;12.93;;
39074;SDS011;24826;52.070;20.970;2022-12-07T16:48:21;17.55;;;11.68;;
39074;SDS011;24826;52.070;20.970;2022-12-07T16:51:06;20.27;;;12.70;;
39074;SDS011;24826;52.070;20.970;2022-12-07T16:53:54;18.92;;;11.45;;
39074;SDS011;24826;52.070;20.970;2022-12-07T16:56:39;17.95;;;11.50;;
39074;SDS011;24826;52.070;20.970;2022-12-07T16:59:24;16.55;;;11.02;;
39074;SDS011;24826;52.070;20.970;2022-12-07T17:02:10;17.77;;;11.48;;
39074;SDS011;24826;52.070;20.970;2022-12-07T17:04:55;18.90;;;11.50;;
39074;SDS011;24826;52.070;20.970;2022-12-07T17:07:40;16.70;;;11.05;;
39074;SDS011;24826;52.070;20.970;2022-12-07T17:10:25;18.65;;;12.13;;
39074;SDS011;24826;52.070;20.970;2022-12-07T17:13:09;19.60;;;11.85;;
39074;SDS011;24826;52.070;20.970;2022-12-07T17:16:12;20.65;;;12.43;;
39074;SDS011;24826;52.070;20.970;2022-12-07T17:18:57;18.95;;;11.70;;
39074;SDS011;24826;52.070;20.970;2022-12-07T17:21:42;18.23;;;12.00;;
39074;SDS011;24826;52.070;20.970;2022-12-07T17:24:27;20.90;;;12.63;;
39074;SDS011;24826;52.070;20.970;2022-12-07T17:27:11;20.80;;;13.18;;
39074;SDS011;24826;52.070;20.970;2022-12-07T17:29:56;20.70;;;12.98;;
39074;SDS011;24826;52.070;20.970;2022-12-07T17:32:40;19.42;;;12.05;;
39074;SDS011;24826;52.070;20.970;2022-12-07T17:35:25;19.40;;;12.75;;
39074;SDS011;24826;52.070;20.970;2022-12-07T17:38:09;18.75;;;11.68;;
39074;SDS011;24826;52.070;20.970;2022-12-07T17:40:54;16.30;;;10.95;;
39074;SDS011;24826;52.070;20.970;2022-12-07T17:43:39;19.83;;;10.57;;
39074;SDS011;24826;52.070;20.970;2022-12-07T17:46:23;16.95;;;10.98;;
39074;SDS011;24826;52.070;20.970;2022-12-07T17:49:07;18.40;;;11.18;;
39074;SDS011;24826;52.070;20.970;2022-12-07T17:51:52;43.28;;;25.77;;
39074;SDS011;24826;52.070;20.970;2022-12-07T17:54:56;29.85;;;17.95;;
39074;SDS011;24826;52.070;20.970;2022-12-07T17:57:40;25.42;;;14.45;;
39074;SDS011;24826;52.070;20.970;2022-12-07T18:00:25;20.30;;;12.55;;
39074;SDS011;24826;52.070;20.970;2022-12-07T18:03:09;18.85;;;11.85;;
39074;SDS011;24826;52.070;20.970;2022-12-07T18:05:54;22.15;;;14.73;;